Time;durP1;ratioP1;P1;durP2;ratioP2;P2;SDS_P1;SDS_P2;PMS_P1;PMS_P2;Temp;Humidity;BMP_temperature;BMP_pressure;BME280_temperature;BME280_humidity;BME280_pressure;Samples;Min_cycle;Max_cycle;Signal;HPM_P1;HPM_P2
2023/03/30 00:01:44;;;;;;;;;;;;;;;29.12;71.46;100935.66;5074771;27;70588;-43
2023/03/30 00:04:14;;;;;;;;;;;;;;;29.14;71.44;100940.84;5075813;28;66711;-44
2023/03/30 00:06:45;;;;;;;;;;;;;;;29.13;72.19;100931.06;5076244;27;71032;-43
2023/03/30 00:09:15;;;;;;;;;;;;;;;29.23;72.16;100939.59;5075521;27;66861;-44
2023/03/30 00:11:46;;;;;;;;;;;;;;;29.26;71.43;100933.78;5074733;27;69023;-43
2023/03/30 00:14:18;;;;;;;;;;;;;;;29.27;71.43;100930.03;5073614;27;67552;-43
2023/03/30 00:16:48;;;;;;;;;;;;;;;29.35;70.79;100929.81;5073347;28;69257;-43
2023/03/30 00:19:18;;;;;;;;;;;;;;;29.43;70.74;100930.66;5076921;27;67103;-43
2023/03/30 00:21:49;;;;;;;;;;;;;;;29.48;70.30;100937.09;5091045;27;70364;-43
2023/03/30 00:24:19;;;;;;;;;;;;;;;29.54;69.88;100944.38;5076478;27;65997;-42
2023/03/30 00:26:50;;;;;;;;;;;;;;;29.59;69.64;100944.56;5075074;28;71048;-43
2023/03/30 00:29:20;;;;;;;;;;;;;;;29.62;68.95;100954.13;5076833;28;66895;-42
2023/03/30 00:31:50;;;;;;;;;;;;;;;29.66;68.96;100944.59;5076545;28;70500;-44
2023/03/30 00:34:21;;;;;;;;;;;;;;;29.70;68.67;100943.13;5076113;27;66556;-42
2023/03/30 00:36:52;;;;;;;;;;;;;;;29.72;68.89;100949.13;5074391;28;69661;-41
2023/03/30 00:39:25;;;;;;;;;;;;;;;29.74;69.00;100952.47;5075939;28;66055;-42
2023/03/30 00:41:56;;;;;;;;;;;;;;;29.78;68.61;100958.28;5076614;27;70344;-42
2023/03/30 00:44:44;;;;;;;;;;;;;;;29.77;66.73;100965.56;5075561;27;65912;-43
2023/03/30 00:47:15;;;;;;;;;;;;;;;29.78;65.52;100959.13;5075640;27;69197;-41
2023/03/30 00:49:45;;;;;;;;;;;;;;;29.80;64.41;100962.44;5075481;27;65460;-41
2023/03/30 00:52:18;;;;;;;;;;;;;;;29.86;64.52;100965.34;5062441;28;70763;-41
2023/03/30 00:54:48;;;;;;;;;;;;;;;29.55;64.11;100921.69;5045297;27;66289;-42
2023/03/30 00:57:23;;;;;;;;;;;;;;;29.93;63.97;100966.16;5069067;27;62335;-41
2023/03/30 00:59:54;;;;;;;;;;;;;;;29.96;63.33;100973.88;5078344;27;66785;-41
2023/03/30 01:02:24;;;;;;;;;;;;;;;29.98;63.17;100969.91;5077278;27;69208;-42
2023/03/30 01:04:56;;;;;;;;;;;;;;;30.00;63.03;100973.19;5078087;27;65756;-43
2023/03/30 01:07:26;;;;;;;;;;;;;;;30.03;62.71;100966.53;5062605;28;70154;-41
2023/03/30 01:09:57;;;;;;;;;;;;;;;30.05;62.35;100975.28;5079236;27;65764;-42
2023/03/30 01:12:28;;;;;;;;;;;;;;;30.08;61.70;100977.56;5079361;27;70181;-41
2023/03/30 01:14:59;;;;;;;;;;;;;;;30.10;61.67;100980.91;5056490;28;66487;-41
2023/03/30 01:17:35;;;;;;;;;;;;;;;30.12;61.92;100981.53;5075263;27;70327;-41
2023/03/30 01:20:11;;;;;;;;;;;;;;;30.14;61.69;100979.41;5079579;27;66544;-41
2023/03/30 01:23:00;;;;;;;;;;;;;;;30.16;61.61;100980.03;5075613;27;70254;-41
2023/03/30 01:25:49;;;;;;;;;;;;;;;30.19;61.10;100986.91;5074635;27;66627;-42
2023/03/30 01:28:35;;;;;;;;;;;;;;;30.22;60.96;100991.91;5073821;27;70461;-42
2023/03/30 01:31:14;;;;;;;;;;;;;;;30.24;60.95;100990.66;5074685;27;66774;-42
2023/03/30 01:34:02;;;;;;;;;;;;;;;30.26;61.07;100994.00;5072251;27;70544;-42
2023/03/30 01:40:23;;;;;;;;;;;;;;;30.33;60.28;100998.53;5066729;28;69936;-42
2023/03/30 01:42:53;;;;;;;;;;;;;;;30.35;60.21;100994.56;5055364;28;66639;-41
2023/03/30 01:45:32;;;;;;;;;;;;;;;30.37;60.27;100994.34;5075185;27;69762;-41
2023/03/30 01:48:25;;;;;;;;;;;;;;;30.40;60.11;101000.19;5082710;27;66639;-42
2023/03/30 01:50:58;;;;;;;;;;;;;;;30.43;60.22;100996.22;5081968;27;69880;-42
2023/03/30 01:53:38;;;;;;;;;;;;;;;30.44;59.72;100995.16;5082349;27;66962;-42
2023/03/30 01:56:29;;;;;;;;;;;;;;;30.47;59.90;101000.16;5096998;27;70733;-42
2023/03/30 01:59:10;;;;;;;;;;;;;;;30.49;59.42;100993.47;5047391;27;65687;-43
2023/03/30 02:01:42;;;;;;;;;;;;;;;30.53;59.33;100991.16;5067164;27;70790;-42
2023/03/30 02:04:13;;;;;;;;;;;;;;;30.55;59.42;100999.06;5081810;28;65730;-42
2023/03/30 02:06:47;;;;;;;;;;;;;;;30.59;59.69;100997.59;5062625;28;68834;-42
2023/03/30 02:09:19;;;;;;;;;;;;;;;30.61;59.48;100987.38;5082542;27;66054;-44
2023/03/30 02:11:52;;;;;;;;;;;;;;;30.62;59.01;100987.19;5072875;27;70339;-43
2023/03/30 02:14:25;;;;;;;;;;;;;;;30.65;59.14;100986.75;5076056;27;65581;-45
2023/03/30 02:17:10;;;;;;;;;;;;;;;30.67;59.45;100984.66;5090747;27;70407;-45
2023/03/30 02:19:41;;;;;;;;;;;;;;;30.70;58.84;100989.63;5077726;27;66419;-41
2023/03/30 02:22:12;;;;;;;;;;;;;;;30.71;58.74;100983.16;5059421;28;69200;-42
2023/03/30 02:24:47;;;;;;;;;;;;;;;30.75;59.02;100986.25;5094247;27;66289;-42
2023/03/30 02:27:18;;;;;;;;;;;;;;;30.78;59.05;100985.81;5075910;27;71968;-41
2023/03/30 02:29:48;;;;;;;;;;;;;;;30.80;58.61;100983.75;5076325;27;66064;-41
2023/03/30 02:32:23;;;;;;;;;;;;;;;30.84;58.93;100986.84;5046803;27;70023;-42
2023/03/30 02:35:09;;;;;;;;;;;;;;;30.86;58.61;100987.47;5059061;28;66892;-42
2023/03/30 02:38:04;;;;;;;;;;;;;;;30.90;58.96;100988.72;5059034;28;69765;-41
2023/03/30 02:40:48;;;;;;;;;;;;;;;30.91;58.42;100983.06;5042381;28;66172;-42
2023/03/30 02:43:37;;;;;;;;;;;;;;;30.96;58.48;100985.13;5073015;27;70706;-43
2023/03/30 02:46:27;;;;;;;;;;;;;;;30.99;58.07;100983.88;5052768;27;67307;-42
2023/03/30 02:49:15;;;;;;;;;;;;;;;31.00;58.33;100972.78;5075927;27;69639;-41
2023/03/30 02:52:15;;;;;;;;;;;;;;;31.04;58.05;100976.75;5074694;27;66019;-42
2023/03/30 02:54:52;;;;;;;;;;;;;;;31.07;58.15;100965.47;5089515;27;69603;-42
2023/03/30 02:57:54;;;;;;;;;;;;;;;31.10;57.91;100962.31;5075802;27;67042;-41
2023/03/30 03:00:43;;;;;;;;;;;;;;;31.14;57.59;100968.94;5077753;27;69847;-41
2023/03/30 03:03:22;;;;;;;;;;;;;;;31.18;57.83;100963.94;5057369;28;66568;-42
2023/03/30 03:05:54;;;;;;;;;;;;;;;31.21;57.43;100965.38;5077264;27;70681;-42
2023/03/30 03:08:34;;;;;;;;;;;;;;;31.24;57.69;100957.63;5075473;27;65485;-44
2023/03/30 03:11:07;;;;;;;;;;;;;;;31.27;57.35;100954.47;5060208;28;69203;-43
2023/03/30 03:13:37;;;;;;;;;;;;;;;31.29;57.12;100954.25;5060176;27;66711;-43
2023/03/30 03:16:09;;;;;;;;;;;;;;;31.32;57.49;100949.22;5077558;27;70481;-42
2023/03/30 03:18:49;;;;;;;;;;;;;;;31.34;56.96;100946.25;5062769;27;66491;-45
2023/03/30 03:21:19;;;;;;;;;;;;;;;31.38;57.08;100952.94;5062914;28;70650;-45
2023/03/30 03:23:49;;;;;;;;;;;;;;;31.41;56.86;100946.25;5059831;27;66348;-42
2023/03/30 03:26:22;;;;;;;;;;;;;;;31.43;56.88;100949.59;5096234;27;70104;-43
2023/03/30 03:28:53;;;;;;;;;;;;;;;31.46;56.69;100944.53;5093444;27;66747;-42
2023/03/30 03:31:25;;;;;;;;;;;;;;;31.49;56.73;100944.09;5059551;28;69758;-43
2023/03/30 03:33:56;;;;;;;;;;;;;;;31.51;56.37;100942.00;5080859;27;67064;-43
2023/03/30 03:36:43;;;;;;;;;;;;;;;31.55;56.65;100937.75;5048816;28;69823;-42
2023/03/30 03:39:13;;;;;;;;;;;;;;;31.57;56.51;100945.69;5062329;27;66417;-42
2023/03/30 03:41:43;;;;;;;;;;;;;;;31.59;56.31;100944.41;5055990;28;70295;-42
2023/03/30 03:44:14;;;;;;;;;;;;;;;31.61;56.28;100942.28;5057358;28;66197;-43
2023/03/30 03:46:44;;;;;;;;;;;;;;;31.64;55.73;100934.75;5075118;27;70126;-43
2023/03/30 03:49:15;;;;;;;;;;;;;;;31.66;55.94;100929.94;5056392;28;66090;-43
2023/03/30 03:51:45;;;;;;;;;;;;;;;31.68;55.78;100930.53;5090490;27;69689;-43
2023/03/30 03:54:16;;;;;;;;;;;;;;;31.70;55.61;100920.31;5057825;28;66672;-43
2023/03/30 03:56:48;;;;;;;;;;;;;;;31.73;55.62;100923.41;5056495;28;70018;-43
2023/03/30 03:59:18;;;;;;;;;;;;;;;31.74;55.63;100913.38;5078703;27;66830;-43
2023/03/30 04:01:49;;;;;;;;;;;;;;;31.76;55.39;100911.25;5048408;28;69434;-43
2023/03/30 04:04:19;;;;;;;;;;;;;;;31.78;55.27;100903.72;5078837;27;66024;-43
2023/03/30 04:06:50;;;;;;;;;;;;;;;31.80;55.24;100907.06;5056044;28;70332;-45
2023/03/30 04:09:20;;;;;;;;;;;;;;;31.83;54.96;100899.28;5078277;27;66356;-42
2023/03/30 04:12:13;;;;;;;;;;;;;;;31.86;55.37;100894.47;5074559;27;70342;-42
2023/03/30 04:15:02;;;;;;;;;;;;;;;31.88;55.21;100887.75;5074781;27;65462;-43
2023/03/30 04:18:04;;;;;;;;;;;;;;;31.91;55.30;100884.63;5060012;28;68962;-45
2023/03/30 04:20:52;;;;;;;;;;;;;;;31.92;54.96;100875.41;5072791;27;65719;-43
2023/03/30 04:23:47;;;;;;;;;;;;;;;31.94;54.91;100870.59;5070475;27;70984;-42
2023/03/30 04:26:36;;;;;;;;;;;;;;;31.96;55.06;100868.50;5078300;27;66951;-44
2023/03/30 04:29:24;;;;;;;;;;;;;;;32.00;54.98;100869.69;5046974;28;69514;-43
2023/03/30 04:32:19;;;;;;;;;;;;;;;32.03;54.83;100858.38;5059749;28;66008;-43
2023/03/30 04:35:24;;;;;;;;;;;;;;;32.06;54.84;100851.66;5071214;27;70353;-43
2023/03/30 04:38:20;;;;;;;;;;;;;;;32.09;54.81;100851.19;5074515;27;66678;-43
2023/03/30 04:40:59;;;;;;;;;;;;;;;32.12;54.68;100847.19;5075295;27;70457;-42
2023/03/30 04:43:48;;;;;;;;;;;;;;;32.15;54.61;100844.03;5073884;27;66034;-43
2023/03/30 04:46:45;;;;;;;;;;;;;;;32.17;55.00;100841.91;5054998;28;68684;-42
2023/03/30 04:49:47;;;;;;;;;;;;;;;32.19;54.68;100837.91;5054464;27;66439;-42
2023/03/30 04:52:36;;;;;;;;;;;;;;;32.24;54.53;100837.25;5075650;27;70223;-43
2023/03/30 04:55:08;;;;;;;;;;;;;;;32.26;54.27;100824.25;5072775;27;66577;-45
2023/03/30 04:58:11;;;;;;;;;;;;;;;32.28;54.25;100822.13;5060569;27;69641;-45
2023/03/30 05:00:44;;;;;;;;;;;;;;;32.31;54.34;100810.81;5075754;27;66854;-44
2023/03/30 05:03:38;;;;;;;;;;;;;;;32.34;54.14;100810.34;5053563;28;69836;-43
2023/03/30 05:06:28;;;;;;;;;;;;;;;32.37;54.25;100799.00;5070018;27;66495;-43
2023/03/30 05:09:08;;;;;;;;;;;;;;;32.39;54.33;100796.91;5069412;28;69284;-43
2023/03/30 05:12:05;;;;;;;;;;;;;;;32.42;54.20;100791.00;5072807;27;67094;-43
2023/03/30 05:14:45;;;;;;;;;;;;;;;32.43;54.03;100791.81;5058013;28;70824;-44
2023/03/30 05:17:32;;;;;;;;;;;;;;;32.45;54.05;100785.09;5059225;27;66794;-43
2023/03/30 05:20:20;;;;;;;;;;;;;;;32.50;53.92;100787.16;5076182;27;69171;-44
2023/03/30 05:23:08;;;;;;;;;;;;;;;32.49;53.81;100767.34;5079805;27;66301;-43
2023/03/30 05:25:58;;;;;;;;;;;;;;;32.53;53.66;100770.41;5077792;27;69290;-43
2023/03/30 05:28:46;;;;;;;;;;;;;;;32.55;53.60;100762.03;5079433;27;65996;-42
2023/03/30 05:31:26;;;;;;;;;;;;;;;32.56;53.68;100755.53;5071325;28;69911;-45
2023/03/30 05:34:28;;;;;;;;;;;;;;;32.59;53.52;100752.34;5071411;27;65462;-45
2023/03/30 05:37:17;;;;;;;;;;;;;;;32.60;53.48;100748.59;5077820;27;69627;-42
2023/03/30 05:40:10;;;;;;;;;;;;;;;32.62;53.60;100735.56;5042063;27;66558;-46
2023/03/30 05:42:57;;;;;;;;;;;;;;;32.64;53.67;100728.03;5093876;27;70346;-44
2023/03/30 05:45:42;;;;;;;;;;;;;;;32.68;53.24;100724.63;5063530;28;65998;-45
2023/03/30 05:48:40;;;;;;;;;;;;;;;32.71;53.34;100720.59;5058166;28;70314;-43
2023/03/30 05:51:36;;;;;;;;;;;;;;;32.73;53.24;100718.44;5076258;27;66318;-44
2023/03/30 05:54:26;;;;;;;;;;;;;;;32.75;53.23;100708.19;5080529;27;69900;-43
2023/03/30 05:57:20;;;;;;;;;;;;;;;32.79;53.04;100703.94;5081248;27;66902;-44
2023/03/30 06:00:12;;;;;;;;;;;;;;;32.81;52.93;100698.25;5059440;28;70535;-43
2023/03/30 06:02:59;;;;;;;;;;;;;;;32.83;53.19;100694.25;5060748;27;66853;-43
2023/03/30 06:05:33;;;;;;;;;;;;;;;32.85;53.02;100686.69;5078725;27;70809;-43
2023/03/30 06:08:06;;;;;;;;;;;;;;;32.89;52.95;100681.59;5060207;28;65753;-44
2023/03/30 06:10:37;;;;;;;;;;;;;;;32.91;52.91;100682.19;5059351;27;70653;-43
2023/03/30 06:13:12;;;;;;;;;;;;;;;32.92;52.63;100676.50;5059663;28;66675;-42
2023/03/30 06:15:50;;;;;;;;;;;;;;;32.94;52.95;100668.94;5095718;27;70330;-42
2023/03/30 06:18:23;;;;;;;;;;;;;;;32.97;52.93;100658.66;5059221;28;66506;-43
2023/03/30 06:21:07;;;;;;;;;;;;;;;32.99;52.93;100657.38;5088426;27;68996;-44
2023/03/30 06:23:57;;;;;;;;;;;;;;;33.01;52.75;100657.13;5061130;28;66154;-43
2023/03/30 06:26:30;;;;;;;;;;;;;;;33.04;52.43;100652.06;5061909;28;69790;-44
2023/03/30 06:29:01;;;;;;;;;;;;;;;33.06;52.69;100646.38;5060034;28;66447;-43
2023/03/30 06:31:32;;;;;;;;;;;;;;;33.08;52.57;100644.25;5061386;28;70122;-43
2023/03/30 06:34:21;;;;;;;;;;;;;;;33.10;52.52;100639.41;5074604;27;66402;-43
2023/03/30 06:36:52;;;;;;;;;;;;;;;33.00;52.44;100622.91;5093211;27;70598;-42
2023/03/30 06:39:24;;;;;;;;;;;;;;;33.16;52.44;100635.72;5094840;27;65936;-45
2023/03/30 06:41:54;;;;;;;;;;;;;;;33.18;52.56;100635.47;5059587;27;70685;-45
2023/03/30 06:44:51;;;;;;;;;;;;;;;32.84;52.43;100568.19;5078988;27;66831;-42
2023/03/30 06:47:21;;;;;;;;;;;;;;;33.24;52.32;100629.91;5080176;27;69903;-42
2023/03/30 06:49:53;;;;;;;;;;;;;;;33.27;52.09;100623.97;5062372;28;64979;-42
2023/03/30 06:52:41;;;;;;;;;;;;;;;33.30;52.21;100618.06;5075664;27;70241;-43
2023/03/30 06:55:11;;;;;;;;;;;;;;;33.31;52.24;100608.81;5078013;27;66670;-44
2023/03/30 06:57:42;;;;;;;;;;;;;;;33.36;52.19;100610.81;5079259;27;70299;-44
2023/03/30 07:00:14;;;;;;;;;;;;;;;33.38;51.94;100605.97;5076250;27;66399;-42
2023/03/30 07:03:07;;;;;;;;;;;;;;;33.43;51.97;100591.63;5061370;27;69908;-42
2023/03/30 07:05:57;;;;;;;;;;;;;;;33.47;51.72;100590.06;5078750;27;65508;-43
2023/03/30 07:08:35;;;;;;;;;;;;;;;33.51;51.95;100591.22;5083193;27;70170;-41
2023/03/30 07:11:05;;;;;;;;;;;;;;;33.54;51.86;100590.75;5066595;27;66868;-42
2023/03/30 07:13:39;;;;;;;;;;;;;;;33.57;52.04;100576.66;5061957;28;69764;-43
2023/03/30 07:16:10;;;;;;;;;;;;;;;33.62;51.70;100579.47;5080622;27;66373;-44
2023/03/30 07:18:40;;;;;;;;;;;;;;;33.65;51.72;100575.44;5093798;27;69342;-42
2023/03/30 07:21:11;;;;;;;;;;;;;;;33.68;51.51;100569.50;5045949;28;65351;-45
2023/03/30 07:23:42;;;;;;;;;;;;;;;33.70;51.62;100573.63;5060796;27;69721;-43
2023/03/30 07:26:24;;;;;;;;;;;;;;;33.72;51.47;100560.63;5057244;28;67049;-42
2023/03/30 07:29:04;;;;;;;;;;;;;;;33.76;51.65;100561.75;5061082;28;70165;-42
2023/03/30 07:31:37;;;;;;;;;;;;;;;33.78;51.56;100554.19;5057440;28;66089;-42
2023/03/30 07:34:11;;;;;;;;;;;;;;;33.84;51.50;100562.44;5075041;27;69864;-42
2023/03/30 07:36:47;;;;;;;;;;;;;;;33.88;51.29;100552.69;5064746;28;65998;-43
2023/03/30 07:39:18;;;;;;;;;;;;;;;33.91;51.26;100558.47;5075121;27;70245;-43
2023/03/30 07:41:50;;;;;;;;;;;;;;;33.96;51.27;100560.44;5075178;27;66425;-44
2023/03/30 07:44:21;;;;;;;;;;;;;;;33.99;51.22;100559.91;5055717;27;70490;-42
2023/03/30 07:46:51;;;;;;;;;;;;;;;34.04;51.31;100551.84;5090037;27;66023;-41
2023/03/30 07:49:25;;;;;;;;;;;;;;;34.06;50.82;100538.03;5062120;27;70113;-45
2023/03/30 07:51:56;;;;;;;;;;;;;;;34.09;50.70;100546.50;5060405;28;67119;-45
2023/03/30 07:54:35;;;;;;;;;;;;;;;34.16;51.07;100554.50;5061109;28;69714;-42
2023/03/30 07:57:16;;;;;;;;;;;;;;;34.18;50.75;100547.72;5078218;27;66458;-42
2023/03/30 07:59:47;;;;;;;;;;;;;;;34.22;50.74;100539.88;5058517;27;69853;-42
2023/03/30 08:02:37;;;;;;;;;;;;;;;34.25;50.34;100532.03;5073519;27;66276;-42
2023/03/30 08:05:14;;;;;;;;;;;;;;;34.30;50.31;100544.91;5092120;27;70155;-43
2023/03/30 08:08:07;;;;;;;;;;;;;;;34.33;50.38;100543.59;5068513;27;66609;-43
2023/03/30 08:10:39;;;;;;;;;;;;;;;34.39;50.08;100548.00;5056332;28;69895;-42
2023/03/30 08:13:11;;;;;;;;;;;;;;;34.43;50.16;100546.41;5059592;27;67164;-43
2023/03/30 08:15:44;;;;;;;;;;;;;;;34.46;49.91;100554.94;5057244;28;70698;-43
2023/03/30 08:18:14;;;;;;;;;;;;;;;34.49;49.99;100548.13;5078414;27;67235;-45
2023/03/30 08:20:49;;;;;;;;;;;;;;;34.52;49.95;100553.09;5077756;27;69201;-43
2023/03/30 08:23:19;;;;;;;;;;;;;;;34.54;49.42;100540.03;5058259;28;66908;-42
2023/03/30 08:25:52;;;;;;;;;;;;;;;34.57;49.85;100539.53;5075562;27;69388;-42
2023/03/30 08:28:23;;;;;;;;;;;;;;;34.60;49.18;100541.78;5077094;27;66599;-42
2023/03/30 08:30:53;;;;;;;;;;;;;;;34.62;49.22;100542.34;5073861;27;69807;-42
2023/03/30 08:33:24;;;;;;;;;;;;;;;34.65;49.33;100533.66;5079644;27;65790;-42
2023/03/30 08:35:54;;;;;;;;;;;;;;;34.68;49.00;100530.41;5077821;27;69488;-43
2023/03/30 08:38:25;;;;;;;;;;;;;;;34.72;48.88;100535.38;5076620;27;66947;-43
2023/03/30 08:40:55;;;;;;;;;;;;;;;34.75;49.10;100535.69;5071983;27;69995;-43
2023/03/30 08:43:31;;;;;;;;;;;;;;;34.80;49.01;100524.84;5076654;27;67408;-42
2023/03/30 08:46:02;;;;;;;;;;;;;;;34.83;49.22;100537.13;5078733;27;70764;-42
2023/03/30 08:48:37;;;;;;;;;;;;;;;34.86;49.27;100532.00;5078110;27;66350;-43
2023/03/30 08:51:12;;;;;;;;;;;;;;;34.88;48.67;100537.16;5076692;27;70151;-42
2023/03/30 08:53:43;;;;;;;;;;;;;;;34.92;48.60;100535.59;5074864;27;66504;-42
2023/03/30 08:56:20;;;;;;;;;;;;;;;34.95;48.54;100545.97;5078007;27;70348;-42
2023/03/30 08:59:09;;;;;;;;;;;;;;;34.99;48.49;100549.00;5069132;27;66896;-42
2023/03/30 09:01:39;;;;;;;;;;;;;;;35.01;48.94;100544.94;5074697;27;70221;-42
2023/03/30 09:04:09;;;;;;;;;;;;;;;35.04;48.50;100538.97;5076279;28;66091;-43
2023/03/30 09:06:40;;;;;;;;;;;;;;;35.08;48.30;100544.78;5078884;27;69755;-42
2023/03/30 09:09:15;;;;;;;;;;;;;;;35.11;48.69;100553.28;5077647;27;66837;-43
2023/03/30 09:11:49;;;;;;;;;;;;;;;35.14;48.55;100550.03;5076869;27;70324;-45
2023/03/30 09:14:25;;;;;;;;;;;;;;;35.18;48.24;100561.22;5076193;27;65958;-42
2023/03/30 09:17:03;;;;;;;;;;;;;;;35.20;48.65;100558.25;5093182;27;69850;-42
2023/03/30 09:19:37;;;;;;;;;;;;;;;34.99;48.73;100558.00;5076565;27;66680;-43
2023/03/30 09:22:12;;;;;;;;;;;;;;;34.69;48.98;100562.03;5074769;27;69758;-44
2023/03/30 09:24:42;;;;;;;;;;;;;;;34.52;49.74;100553.09;5076284;27;65326;-43
2023/03/30 09:27:18;;;;;;;;;;;;;;;34.40;50.82;100555.09;5078082;27;69807;-44
2023/03/30 09:29:50;;;;;;;;;;;;;;;34.32;51.17;100555.53;5074957;27;65943;-42
2023/03/30 09:32:31;;;;;;;;;;;;;;;34.27;52.00;100545.41;5075467;27;70646;-43
2023/03/30 09:35:09;;;;;;;;;;;;;;;34.22;52.09;100546.16;5091741;27;66094;-42
2023/03/30 09:37:39;;;;;;;;;;;;;;;34.19;52.00;100549.38;5076776;27;69813;-42
2023/03/30 09:40:25;;;;;;;;;;;;;;;34.17;52.47;100551.53;5074283;27;67098;-46
2023/03/30 09:43:01;;;;;;;;;;;;;;;34.15;52.83;100548.22;5073404;27;69384;-44
2023/03/30 09:45:33;;;;;;;;;;;;;;;34.12;52.67;100537.84;5072692;27;65859;-42
2023/03/30 09:48:06;;;;;;;;;;;;;;;34.13;52.82;100539.50;5072130;27;71242;-43
2023/03/30 09:50:38;;;;;;;;;;;;;;;34.12;53.10;100543.28;5076671;28;66593;-46
2023/03/30 09:53:25;;;;;;;;;;;;;;;34.10;53.17;100548.16;5074343;27;69386;-44
2023/03/30 09:56:03;;;;;;;;;;;;;;;34.09;53.56;100565.56;5075181;27;66585;-44
2023/03/30 09:58:34;;;;;;;;;;;;;;;34.07;53.35;100558.72;5073882;27;69715;-43
2023/03/30 10:01:11;;;;;;;;;;;;;;;34.07;53.55;100572.31;5074730;27;66869;-46
2023/03/30 10:03:42;;;;;;;;;;;;;;;34.05;53.59;100575.31;5072741;27;70302;-45
2023/03/30 10:06:17;;;;;;;;;;;;;;;34.03;53.52;100572.78;5069161;27;65338;-46
2023/03/30 10:08:47;;;;;;;;;;;;;;;34.00;53.71;100572.47;5095971;27;69417;-44
2023/03/30 10:11:28;;;;;;;;;;;;;;;33.99;53.85;100579.81;5077502;27;65716;-45
2023/03/30 10:13:58;;;;;;;;;;;;;;;33.98;53.98;100591.75;5058875;28;69041;-46
2023/03/30 10:16:31;;;;;;;;;;;;;;;33.98;53.72;100590.94;5077523;27;66242;-44
2023/03/30 10:19:04;;;;;;;;;;;;;;;33.95;53.58;100596.88;5075222;27;70021;-43
2023/03/30 10:21:38;;;;;;;;;;;;;;;33.90;54.18;100605.78;5078054;27;65405;-46
2023/03/30 10:24:22;;;;;;;;;;;;;;;33.92;54.51;100613.72;5077732;28;70311;-44
2023/03/30 10:26:57;;;;;;;;;;;;;;;34.18;54.03;100606.78;5079551;27;65458;-44
2023/03/30 10:29:28;;;;;;;;;;;;;;;34.32;53.59;100607.25;5077762;27;70550;-44
2023/03/30 10:32:07;;;;;;;;;;;;;;;34.41;53.07;100605.78;5076998;27;66926;-44
2023/03/30 10:34:43;;;;;;;;;;;;;;;34.50;52.80;100619.78;5075629;27;69404;-45
2023/03/30 10:37:22;;;;;;;;;;;;;;;34.56;52.57;100630.50;5076053;27;65960;-46
2023/03/30 10:39:54;;;;;;;;;;;;;;;34.61;52.04;100632.50;5075865;27;70069;-44
2023/03/30 10:42:26;;;;;;;;;;;;;;;34.63;52.05;100636.63;5078718;27;66118;-45
2023/03/30 10:45:00;;;;;;;;;;;;;;;34.66;52.23;100636.09;5079162;27;70768;-44
2023/03/30 10:47:48;;;;;;;;;;;;;;;34.57;52.41;100628.59;5078604;27;65741;-44
2023/03/30 10:50:25;;;;;;;;;;;;;;;34.29;54.62;100643.16;5076301;27;69592;-45
2023/03/30 10:52:58;;;;;;;;;;;;;;;34.08;55.26;100640.13;5075681;27;66547;-44
2023/03/30 10:55:44;;;;;;;;;;;;;;;33.96;55.89;100636.63;5077077;27;69740;-43
2023/03/30 10:58:29;;;;;;;;;;;;;;;33.88;56.67;100645.19;5078569;27;66222;-44
2023/03/30 11:01:07;;;;;;;;;;;;;;;33.81;57.12;100651.63;5079599;27;70164;-44
2023/03/30 11:03:40;;;;;;;;;;;;;;;34.00;56.30;100659.56;5079837;27;66646;-45
2023/03/30 11:06:16;;;;;;;;;;;;;;;34.10;56.09;100664.38;5055690;27;69811;-46
2023/03/30 11:08:48;;;;;;;;;;;;;;;33.90;56.66;100670.25;5079509;28;66563;-44
2023/03/30 11:11:23;;;;;;;;;;;;;;;33.78;57.37;100668.44;5075323;27;69990;-44
2023/03/30 11:13:56;;;;;;;;;;;;;;;33.72;58.11;100685.75;5076469;27;66424;-43
2023/03/30 11:16:33;;;;;;;;;;;;;;;33.66;57.96;100692.16;5054545;28;70118;-44
2023/03/30 11:19:13;;;;;;;;;;;;;;;33.58;58.22;100696.09;5075228;27;66251;-44
2023/03/30 11:21:49;;;;;;;;;;;;;;;33.56;58.01;100702.84;5079938;27;69996;-45
2023/03/30 11:24:20;;;;;;;;;;;;;;;33.51;57.89;100700.81;5092152;27;66336;-44
2023/03/30 11:26:58;;;;;;;;;;;;;;;33.49;58.11;100718.44;5076549;27;70028;-44
2023/03/30 11:29:42;;;;;;;;;;;;;;;33.48;58.29;100720.34;5076864;27;66740;-44
2023/03/30 11:32:16;;;;;;;;;;;;;;;33.65;57.37;100714.97;5059446;27;69951;-43
2023/03/30 11:34:52;;;;;;;;;;;;;;;33.76;56.77;100721.44;5080898;27;66567;-43
2023/03/30 11:37:28;;;;;;;;;;;;;;;33.85;56.15;100727.31;5077451;27;69559;-43
2023/03/30 11:40:10;;;;;;;;;;;;;;;33.90;55.60;100732.84;5078134;27;65620;-44
2023/03/30 11:42:41;;;;;;;;;;;;;;;33.93;55.22;100735.06;5080034;27;70637;-43
2023/03/30 11:45:17;;;;;;;;;;;;;;;33.96;55.37;100734.59;5078207;27;66396;-44
2023/03/30 11:47:53;;;;;;;;;;;;;;;33.41;55.53;100642.72;5065637;27;68661;-45
2023/03/30 11:50:24;;;;;;;;;;;;;;;33.98;55.00;100743.34;5078369;27;67098;-42
2023/03/30 11:53:06;;;;;;;;;;;;;;;33.99;55.14;100747.69;5059476;28;70033;-42
2023/03/30 11:55:46;;;;;;;;;;;;;;;34.00;55.16;100760.25;5074525;27;65631;-44
2023/03/30 11:58:16;;;;;;;;;;;;;;;34.00;54.92;100754.81;5072663;27;70209;-44
2023/03/30 12:01:05;;;;;;;;;;;;;;;33.98;54.95;100757.75;5071855;27;66165;-45
2023/03/30 12:03:38;;;;;;;;;;;;;;;33.99;54.83;100744.97;5075411;27;69608;-45
2023/03/30 12:06:31;;;;;;;;;;;;;;;33.95;54.84;100727.50;5076379;27;66452;-45
2023/03/30 12:09:19;;;;;;;;;;;;;;;33.95;54.87;100732.94;5076626;27;70213;-44
2023/03/30 12:12:05;;;;;;;;;;;;;;;33.95;54.58;100741.09;5077069;27;66581;-45
2023/03/30 12:14:40;;;;;;;;;;;;;;;33.93;55.10;100754.13;5074354;27;70351;-44
2023/03/30 12:17:18;;;;;;;;;;;;;;;33.91;55.09;100764.44;5081694;27;66862;-45
2023/03/30 12:19:51;;;;;;;;;;;;;;;33.90;55.04;100770.94;5076084;27;70302;-45
2023/03/30 12:22:30;;;;;;;;;;;;;;;33.89;55.10;100772.03;5080399;27;66838;-45
2023/03/30 12:25:13;;;;;;;;;;;;;;;33.87;55.09;100776.88;5072927;27;69987;-44
2023/03/30 12:28:03;;;;;;;;;;;;;;;33.86;55.13;100780.69;5070294;27;66555;-43
2023/03/30 12:30:47;;;;;;;;;;;;;;;33.84;54.93;100785.53;5076111;27;69760;-45
2023/03/30 12:33:19;;;;;;;;;;;;;;;33.83;55.58;100790.16;5079415;27;65823;-45
2023/03/30 12:35:49;;;;;;;;;;;;;;;33.83;55.22;100794.78;5076550;27;70050;-43
2023/03/30 12:38:37;;;;;;;;;;;;;;;33.74;56.16;100797.88;5075111;27;66725;-45
2023/03/30 12:41:17;;;;;;;;;;;;;;;33.51;57.17;100811.50;5075217;27;70020;-46
2023/03/30 12:44:02;;;;;;;;;;;;;;;33.36;57.59;100812.81;5075133;27;65490;-42
2023/03/30 12:46:41;;;;;;;;;;;;;;;33.24;58.03;100813.91;5043843;27;68974;-44
2023/03/30 12:49:25;;;;;;;;;;;;;;;33.16;58.37;100817.81;5077156;27;66951;-45
2023/03/30 12:52:08;;;;;;;;;;;;;;;33.08;58.72;100821.72;5075469;27;69243;-43
2023/03/30 12:54:53;;;;;;;;;;;;;;;33.04;58.74;100811.56;5077888;27;66842;-43
2023/03/30 12:57:24;;;;;;;;;;;;;;;32.99;58.93;100812.25;5074297;27;70405;-42
2023/03/30 13:00:08;;;;;;;;;;;;;;;32.94;59.13;100809.41;5078246;27;67155;-44
2023/03/30 13:02:41;;;;;;;;;;;;;;;32.91;59.19;100799.84;5076425;27;70162;-44
2023/03/30 13:05:20;;;;;;;;;;;;;;;32.89;59.67;100803.84;5074042;27;66578;-45
2023/03/30 13:07:51;;;;;;;;;;;;;;;32.86;59.92;100801.59;5077497;27;70122;-44
2023/03/30 13:10:30;;;;;;;;;;;;;;;32.82;60.03;100801.25;5078604;27;66406;-45
2023/03/30 13:13:03;;;;;;;;;;;;;;;32.80;60.74;100781.66;5077795;27;70278;-47
2023/03/30 13:15:42;;;;;;;;;;;;;;;32.79;60.92;100785.44;5073666;27;66414;-44
2023/03/30 13:18:13;;;;;;;;;;;;;;;32.76;61.34;100769.59;5066120;27;68933;-46
2023/03/30 13:20:46;;;;;;;;;;;;;;;32.75;61.28;100767.94;5075161;27;66220;-44
2023/03/30 13:23:19;;;;;;;;;;;;;;;32.71;61.36;100764.88;5072633;27;69977;-46
2023/03/30 13:25:55;;;;;;;;;;;;;;;32.71;61.31;100772.19;5075576;27;66629;-45
2023/03/30 13:28:44;;;;;;;;;;;;;;;32.69;61.61;100786.00;5077297;27;69097;-44
2023/03/30 13:31:15;;;;;;;;;;;;;;;32.69;61.53;100790.63;5074626;27;66249;-41
2023/03/30 13:33:49;;;;;;;;;;;;;;;32.66;61.93;100797.34;5070924;27;69887;-44